sensor_id;sensor_type;location;lat;lon;timestamp;pressure;altitude;pressure_sealevel;temperature;humidity
61345;BME280;47216;42.656;23.232;2023-02-10T13:09:46;95319.31;;;3.50;44.04
61345;BME280;47216;42.656;23.232;2023-02-10T13:12:15;95321.38;;;3.55;43.71
61345;BME280;47216;42.656;23.232;2023-02-10T13:14:45;95318.31;;;3.60;43.65
61345;BME280;47216;42.656;23.232;2023-02-10T13:18:04;95322.31;;;3.62;44.01
61345;BME280;47216;42.656;23.232;2023-02-10T13:20:19;95319.44;;;3.65;44.33
61345;BME280;47216;42.656;23.232;2023-02-10T13:23:19;95321.38;;;3.63;44.06
61345;BME280;47216;42.656;23.232;2023-02-10T13:34:30;95319.72;;;3.70;43.49
61345;BME280;47216;42.656;23.232;2023-02-10T13:36:59;95318.59;;;3.73;43.69
61345;BME280;47216;42.656;23.232;2023-02-10T13:39:29;95319.34;;;3.82;44.11
61345;BME280;47216;42.656;23.232;2023-02-10T13:42:07;95314.19;;;3.82;43.65
61345;BME280;47216;42.656;23.232;2023-02-10T13:44:37;95313.81;;;3.93;44.27
61345;BME280;47216;42.656;23.232;2023-02-10T13:47:11;95314.91;;;3.98;43.69
61345;BME280;47216;42.656;23.232;2023-02-10T13:49:48;95310.22;;;4.02;43.53
61345;BME280;47216;42.656;23.232;2023-02-10T13:52:16;95305.06;;;4.02;43.84
61345;BME280;47216;42.656;23.232;2023-02-10T13:54:52;95315.38;;;4.02;44.07
61345;BME280;47216;42.656;23.232;2023-02-10T13:57:23;95309.88;;;4.05;43.64
61345;BME280;47216;42.656;23.232;2023-02-10T13:59:50;95317.91;;;4.10;44.31
61345;BME280;47216;42.656;23.232;2023-02-10T14:02:17;95315.59;;;4.15;44.69
61345;BME280;47216;42.656;23.232;2023-02-10T14:04:50;95316.09;;;4.19;44.75
61345;BME280;47216;42.656;23.232;2023-02-10T14:07:36;95313.31;;;4.20;45.37
61345;BME280;47216;42.656;23.232;2023-02-10T14:12:52;95316.09;;;4.19;44.63
61345;BME280;47216;42.656;23.232;2023-02-10T14:15:27;95319.31;;;4.21;44.00
61345;BME280;47216;42.656;23.232;2023-02-10T14:17:55;95315.91;;;4.20;44.55
61345;BME280;47216;42.656;23.232;2023-02-10T14:20:25;95307.81;;;4.24;43.75
61345;BME280;47216;42.656;23.232;2023-02-10T14:22:53;95309.78;;;4.21;44.10
61345;BME280;47216;42.656;23.232;2023-02-10T14:25:25;95314.28;;;4.19;43.61
61345;BME280;47216;42.656;23.232;2023-02-10T14:27:53;95314.66;;;4.16;44.07
61345;BME280;47216;42.656;23.232;2023-02-10T14:30:21;95310.91;;;4.19;43.48
61345;BME280;47216;42.656;23.232;2023-02-10T14:32:49;95311.59;;;4.13;44.31
61345;BME280;47216;42.656;23.232;2023-02-10T14:35:17;95309.50;;;4.16;44.30
61345;BME280;47216;42.656;23.232;2023-02-10T14:37:51;95302.97;;;4.20;43.91
61345;BME280;47216;42.656;23.232;2023-02-10T14:40:19;95294.28;;;4.21;44.84
61345;BME280;47216;42.656;23.232;2023-02-10T14:42:45;95297.16;;;4.27;44.51
61345;BME280;47216;42.656;23.232;2023-02-10T14:45:16;95291.63;;;4.30;44.30
61345;BME280;47216;42.656;23.232;2023-02-10T14:47:43;95300.84;;;4.32;44.83
61345;BME280;47216;42.656;23.232;2023-02-10T14:50:20;95297.63;;;4.30;44.74
61345;BME280;47216;42.656;23.232;2023-02-10T14:52:47;95301.63;;;4.33;44.02
61345;BME280;47216;42.656;23.232;2023-02-10T14:55:22;95304.25;;;4.25;44.93
61345;BME280;47216;42.656;23.232;2023-02-10T14:57:50;95303.09;;;4.04;45.49
61345;BME280;47216;42.656;23.232;2023-02-10T15:00:16;95301.84;;;4.00;45.92
61345;BME280;47216;42.656;23.232;2023-02-10T15:02:45;95307.69;;;3.94;46.69
61345;BME280;47216;42.656;23.232;2023-02-10T15:05:15;95314.44;;;3.95;46.99
61345;BME280;47216;42.656;23.232;2023-02-10T15:07:44;95309.63;;;3.92;47.13
61345;BME280;47216;42.656;23.232;2023-02-10T15:10:14;95317.41;;;3.84;47.63
61345;BME280;47216;42.656;23.232;2023-02-10T15:12:43;95309.69;;;3.75;48.13
61345;BME280;47216;42.656;23.232;2023-02-10T15:15:17;95318.16;;;3.61;48.24
61345;BME280;47216;42.656;23.232;2023-02-10T15:17:46;95314.31;;;3.49;48.04
61345;BME280;47216;42.656;23.232;2023-02-10T15:20:20;95314.38;;;3.32;47.81
61345;BME280;47216;42.656;23.232;2023-02-10T15:22:49;95310.25;;;3.07;48.12
61345;BME280;47216;42.656;23.232;2023-02-10T15:25:28;95332.50;;;2.91;48.74
61345;BME280;47216;42.656;23.232;2023-02-10T15:27:57;95335.88;;;2.84;48.72
61345;BME280;47216;42.656;23.232;2023-02-10T15:30:26;95334.75;;;2.70;48.94
61345;BME280;47216;42.656;23.232;2023-02-10T15:32:54;95338.16;;;2.62;50.02
61345;BME280;47216;42.656;23.232;2023-02-10T15:35:21;95337.97;;;2.56;50.00
61345;BME280;47216;42.656;23.232;2023-02-10T15:37:47;95340.25;;;2.50;50.72
61345;BME280;47216;42.656;23.232;2023-02-10T15:40:16;95342.78;;;2.42;50.67
61345;BME280;47216;42.656;23.232;2023-02-10T15:42:54;95340.22;;;2.34;51.43
61345;BME280;47216;42.656;23.232;2023-02-10T15:45:22;95346.00;;;2.28;51.01
61345;BME280;47216;42.656;23.232;2023-02-10T15:47:52;95346.31;;;2.25;51.66
61345;BME280;47216;42.656;23.232;2023-02-10T15:50:19;95346.63;;;2.14;50.99
61345;BME280;47216;42.656;23.232;2023-02-10T15:52:46;95344.19;;;2.04;51.80
61345;BME280;47216;42.656;23.232;2023-02-10T15:55:14;95350.91;;;1.88;51.49
61345;BME280;47216;42.656;23.232;2023-02-10T15:57:41;95356.16;;;1.79;52.80
61345;BME280;47216;42.656;23.232;2023-02-10T16:00:19;95356.75;;;1.64;52.68
61345;BME280;47216;42.656;23.232;2023-02-10T16:02:47;95350.97;;;1.62;52.76
61345;BME280;47216;42.656;23.232;2023-02-10T16:05:14;95356.06;;;1.54;53.11
61345;BME280;47216;42.656;23.232;2023-02-10T16:07:41;95357.91;;;1.36;53.28
61345;BME280;47216;42.656;23.232;2023-02-10T16:10:10;95366.53;;;1.26;53.36
61345;BME280;47216;42.656;23.232;2023-02-10T16:12:39;95370.34;;;1.22;53.66
61345;BME280;47216;42.656;23.232;2023-02-10T16:15:06;95372.56;;;1.17;53.63
61345;BME280;47216;42.656;23.232;2023-02-10T16:17:36;95377.03;;;1.15;53.69
61345;BME280;47216;42.656;23.232;2023-02-10T16:20:05;95383.25;;;1.04;53.98
61345;BME280;47216;42.656;23.232;2023-02-10T16:22:32;95384.38;;;1.02;53.95
61345;BME280;47216;42.656;23.232;2023-02-10T16:24:58;95379.81;;;0.96;53.77
61345;BME280;47216;42.656;23.232;2023-02-10T16:27:25;95385.06;;;0.86;54.55
61345;BME280;47216;42.656;23.232;2023-02-10T16:29:52;95392.75;;;0.86;54.34
61345;BME280;47216;42.656;23.232;2023-02-10T16:32:20;95397.59;;;0.71;54.47
61345;BME280;47216;42.656;23.232;2023-02-10T16:34:47;95395.63;;;0.65;54.87
61345;BME280;47216;42.656;23.232;2023-02-10T16:37:17;95395.84;;;0.54;55.24
61345;BME280;47216;42.656;23.232;2023-02-10T16:39:45;95402.34;;;0.12;54.95
61345;BME280;47216;42.656;23.232;2023-02-10T16:42:11;95406.75;;;-0.08;55.66
61345;BME280;47216;42.656;23.232;2023-02-10T16:44:38;95400.03;;;-0.09;55.35
61345;BME280;47216;42.656;23.232;2023-02-10T16:47:04;95396.31;;;-0.24;55.20
61345;BME280;47216;42.656;23.232;2023-02-10T16:49:31;95397.94;;;-0.23;55.66
61345;BME280;47216;42.656;23.232;2023-02-10T16:51:57;95402.84;;;-0.39;55.90
61345;BME280;47216;42.656;23.232;2023-02-10T16:54:25;95396.84;;;-0.58;56.33
61345;BME280;47216;42.656;23.232;2023-02-10T16:56:52;95399.97;;;-0.64;56.56
61345;BME280;47216;42.656;23.232;2023-02-10T16:59:18;95401.72;;;-0.55;55.90
61345;BME280;47216;42.656;23.232;2023-02-10T17:01:45;95416.03;;;-0.62;56.65
61345;BME280;47216;42.656;23.232;2023-02-10T17:04:11;95415.34;;;-0.64;56.93
61345;BME280;47216;42.656;23.232;2023-02-10T17:06:39;95406.94;;;-0.94;56.79
61345;BME280;47216;42.656;23.232;2023-02-10T17:09:09;95407.22;;;-1.16;57.60
61345;BME280;47216;42.656;23.232;2023-02-10T17:11:38;95409.00;;;-1.27;58.01
61345;BME280;47216;42.656;23.232;2023-02-10T17:14:05;95409.00;;;-1.36;57.86
61345;BME280;47216;42.656;23.232;2023-02-10T17:16:32;95405.75;;;-1.38;58.02
61345;BME280;47216;42.656;23.232;2023-02-10T17:19:00;95411.28;;;-1.43;57.98
61345;BME280;47216;42.656;23.232;2023-02-10T17:21:27;95409.25;;;-1.49;58.56
61345;BME280;47216;42.656;23.232;2023-02-10T17:23:53;95418.81;;;-1.51;58.51
61345;BME280;47216;42.656;23.232;2023-02-10T17:26:20;95427.78;;;-1.76;58.29
61345;BME280;47216;42.656;23.232;2023-02-10T17:28:48;95422.94;;;-1.89;58.85
61345;BME280;47216;42.656;23.232;2023-02-10T17:31:14;95425.34;;;-1.87;59.19
61345;BME280;47216;42.656;23.232;2023-02-10T17:33:42;95424.53;;;-1.88;59.02
61345;BME280;47216;42.656;23.232;2023-02-10T17:36:13;95430.34;;;-1.76;59.58
61345;BME280;47216;42.656;23.232;2023-02-10T17:38:40;95429.94;;;-1.72;59.11
61345;BME280;47216;42.656;23.232;2023-02-10T17:41:15;95432.13;;;-1.57;58.91
61345;BME280;47216;42.656;23.232;2023-02-10T17:43:42;95440.22;;;-1.42;58.71
61345;BME280;47216;42.656;23.232;2023-02-10T17:46:11;95436.88;;;-1.43;58.32
61345;BME280;47216;42.656;23.232;2023-02-10T17:48:38;95442.78;;;-1.33;58.97
61345;BME280;47216;42.656;23.232;2023-02-10T17:51:05;95442.25;;;-1.27;58.73
61345;BME280;47216;42.656;23.232;2023-02-10T17:53:31;95439.41;;;-1.33;58.81
61345;BME280;47216;42.656;23.232;2023-02-10T17:55:58;95443.47;;;-1.31;58.84
61345;BME280;47216;42.656;23.232;2023-02-10T17:58:25;95448.56;;;-1.31;58.61
61345;BME280;47216;42.656;23.232;2023-02-10T18:00:51;95443.47;;;-1.31;58.66
61345;BME280;47216;42.656;23.232;2023-02-10T18:03:19;95448.19;;;-1.45;58.89
61345;BME280;47216;42.656;23.232;2023-02-10T18:05:46;95446.94;;;-1.51;58.99
61345;BME280;47216;42.656;23.232;2023-02-10T18:08:13;95442.22;;;-1.65;58.36
61345;BME280;47216;42.656;23.232;2023-02-10T18:10:40;95448.94;;;-1.74;58.76
61345;BME280;47216;42.656;23.232;2023-02-10T18:13:06;95451.38;;;-1.63;59.42
61345;BME280;47216;42.656;23.232;2023-02-10T18:15:33;95448.81;;;-1.73;58.44
61345;BME280;47216;42.656;23.232;2023-02-10T18:17:59;95448.06;;;-1.94;58.97
61345;BME280;47216;42.656;23.232;2023-02-10T18:20:29;95446.56;;;-2.06;59.09
61345;BME280;47216;42.656;23.232;2023-02-10T18:22:56;95455.31;;;-1.99;59.31
61345;BME280;47216;42.656;23.232;2023-02-10T18:25:22;95454.63;;;-2.01;58.95
61345;BME280;47216;42.656;23.232;2023-02-10T18:27:49;95459.69;;;-2.21;59.74
61345;BME280;47216;42.656;23.232;2023-02-10T18:30:16;95467.19;;;-2.29;59.61
61345;BME280;47216;42.656;23.232;2023-02-10T18:32:43;95466.25;;;-2.28;59.30
61345;BME280;47216;42.656;23.232;2023-02-10T18:35:10;95470.13;;;-2.34;59.36
61345;BME280;47216;42.656;23.232;2023-02-10T18:37:39;95473.91;;;-2.28;59.92
61345;BME280;47216;42.656;23.232;2023-02-10T18:40:05;95470.69;;;-2.30;60.04
61345;BME280;47216;42.656;23.232;2023-02-10T18:42:32;95474.56;;;-2.57;59.71
61345;BME280;47216;42.656;23.232;2023-02-10T18:44:59;95474.13;;;-2.62;60.07
61345;BME280;47216;42.656;23.232;2023-02-10T18:47:26;95472.22;;;-2.48;59.58
61345;BME280;47216;42.656;23.232;2023-02-10T18:49:52;95471.44;;;-2.39;60.00
61345;BME280;47216;42.656;23.232;2023-02-10T18:52:19;95475.47;;;-2.37;60.06
61345;BME280;47216;42.656;23.232;2023-02-10T18:54:47;95488.09;;;-2.45;59.67
61345;BME280;47216;42.656;23.232;2023-02-10T18:57:14;95491.47;;;-2.65;60.64
61345;BME280;47216;42.656;23.232;2023-02-10T18:59:40;95497.00;;;-2.81;61.04
61345;BME280;47216;42.656;23.232;2023-02-10T19:02:08;95499.72;;;-2.94;61.12
61345;BME280;47216;42.656;23.232;2023-02-10T19:04:36;95492.97;;;-2.84;61.51
61345;BME280;47216;42.656;23.232;2023-02-10T19:07:02;95500.31;;;-2.69;61.11
61345;BME280;47216;42.656;23.232;2023-02-10T19:09:29;95501.97;;;-2.80;60.73
61345;BME280;47216;42.656;23.232;2023-02-10T19:11:57;95492.28;;;-2.65;61.36
61345;BME280;47216;42.656;23.232;2023-02-10T19:14:24;95497.81;;;-2.60;61.21
61345;BME280;47216;42.656;23.232;2023-02-10T19:16:51;95496.19;;;-2.61;60.88
61345;BME280;47216;42.656;23.232;2023-02-10T19:19:17;95505.22;;;-2.57;60.89
61345;BME280;47216;42.656;23.232;2023-02-10T19:21:44;95506.28;;;-2.59;60.99
61345;BME280;47216;42.656;23.232;2023-02-10T19:24:11;95508.44;;;-2.55;60.82
61345;BME280;47216;42.656;23.232;2023-02-10T19:26:38;95506.47;;;-2.51;60.69
61345;BME280;47216;42.656;23.232;2023-02-10T19:29:06;95513.63;;;-2.45;60.90
61345;BME280;47216;42.656;23.232;2023-02-10T19:31:33;95509.66;;;-2.59;60.49
61345;BME280;47216;42.656;23.232;2023-02-10T19:33:59;95513.19;;;-2.71;61.39
61345;BME280;47216;42.656;23.232;2023-02-10T19:36:26;95516.38;;;-2.58;61.03
61345;BME280;47216;42.656;23.232;2023-02-10T19:38:52;95514.94;;;-2.50;61.54
61345;BME280;47216;42.656;23.232;2023-02-10T19:41:20;95515.88;;;-2.51;61.70
61345;BME280;47216;42.656;23.232;2023-02-10T19:43:47;95512.81;;;-2.45;61.02
61345;BME280;47216;42.656;23.232;2023-02-10T19:46:15;95511.38;;;-2.59;61.36
61345;BME280;47216;42.656;23.232;2023-02-10T19:48:42;95519.09;;;-2.91;61.39
61345;BME280;47216;42.656;23.232;2023-02-10T19:51:10;95519.69;;;-3.31;62.69
61345;BME280;47216;42.656;23.232;2023-02-10T19:53:37;95518.94;;;-3.43;62.78
61345;BME280;47216;42.656;23.232;2023-02-10T19:56:04;95519.59;;;-3.30;62.79
61345;BME280;47216;42.656;23.232;2023-02-10T19:58:31;95528.13;;;-3.20;62.29
61345;BME280;47216;42.656;23.232;2023-02-10T20:00:58;95528.94;;;-3.19;62.71
61345;BME280;47216;42.656;23.232;2023-02-10T20:03:26;95525.22;;;-3.15;62.43
61345;BME280;47216;42.656;23.232;2023-02-10T20:05:53;95520.50;;;-2.99;62.21
61345;BME280;47216;42.656;23.232;2023-02-10T20:08:19;95517.44;;;-2.81;62.26
61345;BME280;47216;42.656;23.232;2023-02-10T20:10:49;95520.84;;;-2.71;62.17
61345;BME280;47216;42.656;23.232;2023-02-10T20:13:16;95524.72;;;-2.77;61.67
61345;BME280;47216;42.656;23.232;2023-02-10T20:15:43;95525.44;;;-2.86;62.09
61345;BME280;47216;42.656;23.232;2023-02-10T20:18:10;95532.06;;;-2.83;62.87
61345;BME280;47216;42.656;23.232;2023-02-10T20:20:41;95529.09;;;-3.00;61.99
61345;BME280;47216;42.656;23.232;2023-02-10T20:23:09;95517.53;;;-3.04;61.92
61345;BME280;47216;42.656;23.232;2023-02-10T20:25:36;95527.00;;;-2.94;61.39
61345;BME280;47216;42.656;23.232;2023-02-10T20:28:03;95528.13;;;-2.87;61.50
61345;BME280;47216;42.656;23.232;2023-02-10T20:30:30;95534.16;;;-2.88;61.55
61345;BME280;47216;42.656;23.232;2023-02-10T20:32:56;95542.31;;;-2.94;61.61
61345;BME280;47216;42.656;23.232;2023-02-10T20:35:23;95540.44;;;-2.92;61.31
61345;BME280;47216;42.656;23.232;2023-02-10T20:37:51;95544.28;;;-3.30;61.53
61345;BME280;47216;42.656;23.232;2023-02-10T20:40:17;95536.06;;;-3.34;61.81
61345;BME280;47216;42.656;23.232;2023-02-10T20:42:44;95538.03;;;-3.38;61.96
61345;BME280;47216;42.656;23.232;2023-02-10T20:45:13;95532.03;;;-3.48;62.38
61345;BME280;47216;42.656;23.232;2023-02-10T20:47:40;95527.03;;;-3.49;62.76
61345;BME280;47216;42.656;23.232;2023-02-10T20:50:07;95530.88;;;-3.44;62.71
61345;BME280;47216;42.656;23.232;2023-02-10T20:52:33;95535.25;;;-3.34;62.51
61345;BME280;47216;42.656;23.232;2023-02-10T20:55:02;95535.00;;;-3.31;62.29
61345;BME280;47216;42.656;23.232;2023-02-10T20:57:29;95537.44;;;-3.30;62.09
61345;BME280;47216;42.656;23.232;2023-02-10T20:59:56;95531.06;;;-3.35;61.96
61345;BME280;47216;42.656;23.232;2023-02-10T21:02:22;95536.06;;;-3.34;61.44
61345;BME280;47216;42.656;23.232;2023-02-10T21:04:49;95528.63;;;-3.26;61.72
61345;BME280;47216;42.656;23.232;2023-02-10T21:07:16;95528.28;;;-3.32;61.90
61345;BME280;47216;42.656;23.232;2023-02-10T21:09:42;95522.28;;;-3.43;62.21
61345;BME280;47216;42.656;23.232;2023-02-10T21:12:12;95527.03;;;-3.49;62.40
61345;BME280;47216;42.656;23.232;2023-02-10T21:14:39;95520.66;;;-3.44;62.38
61345;BME280;47216;42.656;23.232;2023-02-10T21:17:06;95523.56;;;-3.48;62.16
61345;BME280;47216;42.656;23.232;2023-02-10T21:19:32;95523.66;;;-3.39;62.12
61345;BME280;47216;42.656;23.232;2023-02-10T21:21:59;95519.16;;;-3.35;62.13
61345;BME280;47216;42.656;23.232;2023-02-10T21:24:26;95513.75;;;-3.53;62.42
61345;BME280;47216;42.656;23.232;2023-02-10T21:26:54;95523.38;;;-3.68;62.40
61345;BME280;47216;42.656;23.232;2023-02-10T21:29:23;95519.22;;;-3.91;62.57
61345;BME280;47216;42.656;23.232;2023-02-10T21:31:50;95514.25;;;-3.93;63.36
61345;BME280;47216;42.656;23.232;2023-02-10T21:34:17;95513.31;;;-3.81;63.45
61345;BME280;47216;42.656;23.232;2023-02-10T21:36:43;95514.84;;;-4.01;63.40
61345;BME280;47216;42.656;23.232;2023-02-10T21:39:11;95513.31;;;-4.03;63.55
61345;BME280;47216;42.656;23.232;2023-02-10T21:41:38;95503.50;;;-3.96;63.37
61345;BME280;47216;42.656;23.232;2023-02-10T21:44:06;95510.31;;;-4.31;64.49
61345;BME280;47216;42.656;23.232;2023-02-10T21:46:34;95507.75;;;-4.42;64.61
61345;BME280;47216;42.656;23.232;2023-02-10T21:49:01;95516.88;;;-4.51;65.10
61345;BME280;47216;42.656;23.232;2023-02-10T21:51:27;95510.75;;;-4.37;64.88
61345;BME280;47216;42.656;23.232;2023-02-10T21:53:54;95515.88;;;-4.48;64.72
61345;BME280;47216;42.656;23.232;2023-02-10T21:56:21;95513.19;;;-4.47;65.08
61345;BME280;47216;42.656;23.232;2023-02-10T21:58:48;95506.09;;;-4.66;66.01
61345;BME280;47216;42.656;23.232;2023-02-10T22:01:15;95518.50;;;-4.61;65.72
61345;BME280;47216;42.656;23.232;2023-02-10T22:03:43;95516.91;;;-4.39;65.29
61345;BME280;47216;42.656;23.232;2023-02-10T22:06:10;95513.81;;;-4.32;65.15
61345;BME280;47216;42.656;23.232;2023-02-10T22:08:36;95512.41;;;-4.36;65.12
61345;BME280;47216;42.656;23.232;2023-02-10T22:11:03;95515.53;;;-4.44;65.45
61345;BME280;47216;42.656;23.232;2023-02-10T22:13:31;95519.56;;;-4.41;65.05
61345;BME280;47216;42.656;23.232;2023-02-10T22:15:58;95515.41;;;-4.42;65.02
61345;BME280;47216;42.656;23.232;2023-02-10T22:18:25;95522.31;;;-4.44;64.68
61345;BME280;47216;42.656;23.232;2023-02-10T22:20:54;95517.25;;;-4.44;64.63
61345;BME280;47216;42.656;23.232;2023-02-10T22:23:20;95509.03;;;-4.48;64.78
61345;BME280;47216;42.656;23.232;2023-02-10T22:25:47;95520.59;;;-4.55;65.08
61345;BME280;47216;42.656;23.232;2023-02-10T22:28:14;95520.25;;;-4.50;65.05
61345;BME280;47216;42.656;23.232;2023-02-10T22:30:41;95517.22;;;-4.55;65.15
61345;BME280;47216;42.656;23.232;2023-02-10T22:33:07;95527.13;;;-4.75;65.49
61345;BME280;47216;42.656;23.232;2023-02-10T22:35:35;95525.13;;;-4.94;65.68
61345;BME280;47216;42.656;23.232;2023-02-10T22:38:03;95514.72;;;-4.91;65.52
61345;BME280;47216;42.656;23.232;2023-02-10T22:40:30;95521.16;;;-4.98;65.84
61345;BME280;47216;42.656;23.232;2023-02-10T22:42:56;95525.31;;;-5.08;66.67
61345;BME280;47216;42.656;23.232;2023-02-10T22:45:23;95523.28;;;-5.16;66.09
61345;BME280;47216;42.656;23.232;2023-02-10T22:47:50;95522.16;;;-5.12;66.62
61345;BME280;47216;42.656;23.232;2023-02-10T22:50:17;95518.53;;;-5.20;66.98
61345;BME280;47216;42.656;23.232;2023-02-10T22:52:44;95515.00;;;-5.07;67.09
61345;BME280;47216;42.656;23.232;2023-02-10T22:55:12;95528.19;;;-5.13;66.10
61345;BME280;47216;42.656;23.232;2023-02-10T22:57:38;95521.94;;;-5.09;66.84
61345;BME280;47216;42.656;23.232;2023-02-10T23:00:05;95521.41;;;-5.25;67.33
61345;BME280;47216;42.656;23.232;2023-02-10T23:02:32;95516.13;;;-5.22;67.64
61345;BME280;47216;42.656;23.232;2023-02-10T23:04:59;95510.81;;;-5.19;66.98
61345;BME280;47216;42.656;23.232;2023-02-10T23:07:26;95521.06;;;-5.20;66.70
61345;BME280;47216;42.656;23.232;2023-02-10T23:09:52;95511.72;;;-5.20;67.21
61345;BME280;47216;42.656;23.232;2023-02-10T23:12:20;95508.97;;;-5.17;67.15
61345;BME280;47216;42.656;23.232;2023-02-10T23:14:47;95512.22;;;-5.15;66.78
61345;BME280;47216;42.656;23.232;2023-02-10T23:17:14;95513.34;;;-5.19;66.14
61345;BME280;47216;42.656;23.232;2023-02-10T23:19:40;95512.59;;;-5.32;67.05
61345;BME280;47216;42.656;23.232;2023-02-10T23:22:07;95507.97;;;-5.38;67.17
61345;BME280;47216;42.656;23.232;2023-02-10T23:24:34;95504.06;;;-5.31;67.35
61345;BME280;47216;42.656;23.232;2023-02-10T23:27:01;95508.88;;;-5.39;66.94
61345;BME280;47216;42.656;23.232;2023-02-10T23:29:29;95507.97;;;-5.38;66.98
61345;BME280;47216;42.656;23.232;2023-02-10T23:31:56;95509.28;;;-5.45;67.01
61345;BME280;47216;42.656;23.232;2023-02-10T23:34:22;95511.09;;;-5.59;67.84
61345;BME280;47216;42.656;23.232;2023-02-10T23:36:49;95516.38;;;-5.62;67.82
61345;BME280;47216;42.656;23.232;2023-02-10T23:39:15;95516.34;;;-5.49;67.17
61345;BME280;47216;42.656;23.232;2023-02-10T23:41:42;95506.41;;;-5.41;67.62
61345;BME280;47216;42.656;23.232;2023-02-10T23:44:09;95505.56;;;-5.29;67.79
61345;BME280;47216;42.656;23.232;2023-02-10T23:46:37;95512.06;;;-5.24;66.59
61345;BME280;47216;42.656;23.232;2023-02-10T23:49:04;95510.06;;;-5.32;67.22
61345;BME280;47216;42.656;23.232;2023-02-10T23:51:31;95510.97;;;-5.33;66.38
61345;BME280;47216;42.656;23.232;2023-02-10T23:53:57;95502.69;;;-5.48;66.07
61345;BME280;47216;42.656;23.232;2023-02-10T23:56:24;95510.31;;;-5.72;67.64
61345;BME280;47216;42.656;23.232;2023-02-10T23:58:51;95506.25;;;-5.75;67.34
